Time;durP1;ratioP1;P1;durP2;ratioP2;P2;SDS_P1;SDS_P2;PMS_P1;PMS_P2;Temp;Humidity;BMP_temperature;BMP_pressure;BME280_temperature;BME280_humidity;BME280_pressure;Samples;Min_cycle;Max_cycle;Signal;HPM_P1;HPM_P2
2023/11/14 00:01:06;;;;;;;28.63;14.30;;;5.50;99.90;;;;;;5061372;28;20206;-73
2023/11/14 00:03:53;;;;;;;28.00;14.43;;;5.50;99.90;;;;;;5060666;28;20204;-73
2023/11/14 00:06:40;;;;;;;32.33;15.20;;;5.40;99.90;;;;;;5063934;28;20204;-73
2023/11/14 00:09:27;;;;;;;30.73;14.60;;;5.50;99.90;;;;;;5067993;28;20732;-74
2023/11/14 00:12:15;;;;;;;46.07;22.43;;;5.50;99.90;;;;;;5059442;28;20697;-73
2023/11/14 00:15:03;;;;;;;38.40;18.67;;;5.50;99.90;;;;;;5063188;28;20624;-73
2023/11/14 00:17:52;;;;;;;36.63;18.23;;;5.50;99.90;;;;;;5067929;28;20216;-74
2023/11/14 00:20:41;;;;;;;35.40;16.47;;;5.50;99.90;;;;;;5063041;28;20207;-74
2023/11/14 00:23:28;;;;;;;34.97;16.60;;;5.50;99.90;;;;;;5064858;28;20201;-73
2023/11/14 00:26:15;;;;;;;34.03;15.73;;;5.50;99.90;;;;;;5062378;28;20217;-74
2023/11/14 00:29:02;;;;;;;30.70;16.27;;;5.50;99.90;;;;;;5064204;28;20451;-73
2023/11/14 00:31:49;;;;;;;33.20;17.57;;;5.50;99.90;;;;;;5061197;28;20579;-73
2023/11/14 00:34:38;;;;;;;36.10;17.77;;;5.50;99.90;;;;;;5058372;28;20651;-73
2023/11/14 00:37:25;;;;;;;38.90;17.57;;;5.50;99.90;;;;;;5060139;28;20228;-73
2023/11/14 00:40:13;;;;;;;31.27;16.93;;;5.60;99.90;;;;;;5058166;28;20201;-73
2023/11/14 00:43:00;;;;;;;32.90;17.37;;;5.60;99.90;;;;;;5064361;28;20207;-73
2023/11/14 00:45:48;;;;;;;41.20;19.37;;;5.70;99.90;;;;;;5065820;28;20199;-73
2023/11/14 00:48:35;;;;;;;34.23;17.67;;;5.70;99.90;;;;;;5064133;28;20210;-73
2023/11/14 00:51:24;;;;;;;31.93;17.37;;;5.70;99.90;;;;;;5066150;28;20230;-73
2023/11/14 00:54:11;;;;;;;26.77;14.53;;;5.80;99.90;;;;;;5060389;28;20199;-73
2023/11/14 00:56:58;;;;;;;29.30;13.93;;;5.80;99.90;;;;;;5064110;28;20662;-73
2023/11/14 00:59:46;;;;;;;25.17;12.00;;;6.00;99.90;;;;;;5062806;28;20210;-74
2023/11/14 01:02:33;;;;;;;14.53;7.77;;;6.10;99.90;;;;;;5063673;28;20208;-74
2023/11/14 01:05:20;;;;;;;16.13;7.80;;;6.50;99.90;;;;;;5063057;28;20214;-74
2023/11/14 01:08:09;;;;;;;2.73;1.77;;;6.60;99.90;;;;;;5067091;28;20333;-73
2023/11/14 01:10:56;;;;;;;9.60;5.70;;;6.70;99.90;;;;;;5067363;28;20620;-73
2023/11/14 01:13:44;;;;;;;8.47;5.37;;;6.90;99.90;;;;;;5064523;28;20562;-73
2023/11/14 01:16:31;;;;;;;10.03;4.67;;;7.00;99.90;;;;;;5066301;28;20553;-73
2023/11/14 01:19:18;;;;;;;7.73;4.47;;;7.00;99.90;;;;;;5067893;28;20666;-73
2023/11/14 01:22:06;;;;;;;8.53;4.87;;;7.10;99.90;;;;;;5058612;28;20203;-73
2023/11/14 01:24:54;;;;;;;8.43;4.77;;;7.10;99.90;;;;;;5061521;28;20217;-73
2023/11/14 01:27:42;;;;;;;8.97;5.10;;;7.10;99.90;;;;;;5061344;28;20238;-73
2023/11/14 01:30:29;;;;;;;9.20;5.00;;;7.20;99.90;;;;;;5061126;28;20245;-73
2023/11/14 01:33:17;;;;;;;6.00;4.07;;;7.20;99.90;;;;;;5078023;28;20222;-73
2023/11/14 01:36:07;;;;;;;10.73;6.00;;;7.20;99.90;;;;;;5056806;28;20234;-73
2023/11/14 01:38:54;;;;;;;10.50;6.30;;;7.20;99.90;;;;;;5068414;28;20681;-74
2023/11/14 01:41:42;;;;;;;11.93;5.90;;;7.20;99.90;;;;;;5069232;28;20247;-73
2023/11/14 01:44:30;;;;;;;15.23;8.40;;;7.30;99.90;;;;;;5067385;28;20200;-73
2023/11/14 01:47:17;;;;;;;16.77;10.30;;;7.20;99.90;;;;;;5064275;28;20256;-73
2023/11/14 01:50:05;;;;;;;19.87;11.40;;;7.30;99.90;;;;;;5065740;28;21789;-73
2023/11/14 01:52:54;;;;;;;19.17;10.67;;;7.30;99.90;;;;;;5059038;28;20220;-73
2023/11/14 01:55:41;;;;;;;15.03;7.97;;;7.40;99.90;;;;;;5055546;28;20750;-73
2023/11/14 01:58:30;;;;;;;17.67;8.57;;;7.50;99.90;;;;;;5056194;28;20214;-73
2023/11/14 02:01:17;;;;;;;15.30;7.83;;;7.50;99.90;;;;;;5064436;28;20205;-73
2023/11/14 02:04:07;;;;;;;15.17;8.60;;;7.50;99.90;;;;;;5072307;28;20198;-74
2023/11/14 02:06:54;;;;;;;13.63;7.73;;;7.50;99.90;;;;;;5067481;28;20207;-73
2023/11/14 02:09:41;;;;;;;15.20;9.17;;;7.50;99.90;;;;;;5063870;28;20245;-73
2023/11/14 02:12:29;;;;;;;10.57;6.53;;;7.50;99.90;;;;;;5067459;28;20219;-73
2023/11/14 02:15:17;;;;;;;15.73;7.83;;;7.60;99.90;;;;;;5063070;28;20208;-73
2023/11/14 02:18:05;;;;;;;14.90;7.80;;;7.70;99.90;;;;;;5068819;28;20212;-73
2023/11/14 02:20:52;;;;;;;16.00;7.70;;;7.70;99.90;;;;;;5068348;28;20291;-73
2023/11/14 02:23:40;;;;;;;11.10;6.50;;;7.80;99.90;;;;;;5064849;28;20984;-73
2023/11/14 02:26:29;;;;;;;10.87;6.37;;;8.00;99.90;;;;;;5071017;28;20740;-73
2023/11/14 02:29:16;;;;;;;6.13;3.67;;;8.10;99.90;;;;;;5066909;28;20205;-73
2023/11/14 02:32:04;;;;;;;6.10;4.17;;;8.30;99.90;;;;;;5054383;28;20193;-73
2023/11/14 02:34:53;;;;;;;7.63;5.23;;;8.30;99.90;;;;;;5068017;28;20204;-73
2023/11/14 02:37:41;;;;;;;6.23;4.17;;;8.40;99.90;;;;;;5065691;28;20229;-73
2023/11/14 02:40:28;;;;;;;4.37;3.33;;;8.60;99.90;;;;;;5063204;28;20247;-73
2023/11/14 02:43:17;;;;;;;4.30;3.57;;;8.60;99.90;;;;;;5068848;28;20201;-73
2023/11/14 02:46:04;;;;;;;4.97;3.97;;;8.70;99.90;;;;;;5070611;28;20570;-73
2023/11/14 02:48:51;;;;;;;7.17;4.83;;;8.70;99.90;;;;;;5061498;28;20294;-73
2023/11/14 02:51:38;;;;;;;4.07;2.67;;;8.80;99.90;;;;;;5059733;28;20584;-72
2023/11/14 02:54:26;;;;;;;7.43;4.63;;;8.90;99.90;;;;;;5061700;28;20224;-73
2023/11/14 02:57:13;;;;;;;9.80;6.13;;;8.90;99.90;;;;;;5067006;28;20197;-73
2023/11/14 03:00:02;;;;;;;5.53;3.30;;;9.00;99.90;;;;;;5066377;28;20207;-73
2023/11/14 03:02:51;;;;;;;8.67;5.93;;;9.00;99.90;;;;;;5068182;28;20205;-73
2023/11/14 03:05:38;;;;;;;11.23;6.73;;;9.10;99.90;;;;;;5052314;28;20273;-73
2023/11/14 03:08:25;;;;;;;9.83;6.60;;;9.10;99.90;;;;;;5062359;28;20206;-73
2023/11/14 03:11:13;;;;;;;9.73;6.47;;;9.10;99.90;;;;;;5065961;28;20556;-73
2023/11/14 03:14:00;;;;;;;10.50;6.90;;;9.10;99.90;;;;;;5058149;28;20216;-73
2023/11/14 03:16:49;;;;;;;10.93;6.47;;;9.10;99.90;;;;;;5061502;28;20686;-73
2023/11/14 03:19:40;;;;;;;11.80;7.27;;;9.20;99.90;;;;;;5060660;28;20251;-73
2023/11/14 03:22:27;;;;;;;3.73;2.50;;;9.20;99.90;;;;;;5055409;28;20359;-73
2023/11/14 03:25:15;;;;;;;9.60;6.63;;;9.20;99.90;;;;;;5059760;28;20205;-73
2023/11/14 03:28:04;;;;;;;11.60;4.97;;;9.20;99.90;;;;;;5068798;28;20235;-73
2023/11/14 03:30:51;;;;;;;9.07;5.50;;;9.20;99.90;;;;;;5070622;28;20330;-73
2023/11/14 03:33:40;;;;;;;10.83;6.47;;;9.20;99.90;;;;;;5084045;28;20675;-73
2023/11/14 03:36:27;;;;;;;9.60;4.87;;;9.30;99.90;;;;;;5062147;28;20235;-73
2023/11/14 03:39:15;;;;;;;10.70;6.47;;;9.30;99.90;;;;;;5066262;28;20275;-73
2023/11/14 03:42:02;;;;;;;7.13;4.70;;;9.30;99.90;;;;;;5067735;28;20200;-73
2023/11/14 03:44:49;;;;;;;11.83;6.00;;;9.30;99.90;;;;;;5066902;28;20204;-73
2023/11/14 03:47:36;;;;;;;8.40;5.97;;;9.30;99.90;;;;;;5068878;28;20208;-73
2023/11/14 03:50:25;;;;;;;10.37;5.73;;;9.30;99.90;;;;;;5057915;28;20193;-73
2023/11/14 03:53:12;;;;;;;6.53;4.60;;;9.30;99.90;;;;;;5066250;28;20629;-73
2023/11/14 03:55:59;;;;;;;5.13;3.73;;;9.30;99.90;;;;;;5063502;28;20203;-73
2023/11/14 03:58:49;;;;;;;4.53;2.67;;;9.30;99.90;;;;;;5071784;28;20208;-73
2023/11/14 04:01:37;;;;;;;3.50;2.60;;;9.30;99.90;;;;;;5060965;28;20570;-73
2023/11/14 04:04:24;;;;;;;4.13;3.07;;;9.30;99.90;;;;;;5064059;28;20201;-73
2023/11/14 04:07:14;;;;;;;5.33;2.97;;;9.30;99.90;;;;;;5066530;28;20731;-73
2023/11/14 04:10:01;;;;;;;4.73;2.30;;;9.30;99.90;;;;;;5053757;28;20727;-72
2023/11/14 04:12:48;;;;;;;6.87;3.07;;;9.30;99.90;;;;;;5059702;28;20274;-73
2023/11/14 04:15:36;;;;;;;5.00;3.03;;;9.30;99.90;;;;;;5061240;28;20207;-73
2023/11/14 04:18:23;;;;;;;4.77;3.40;;;9.30;99.90;;;;;;5064740;28;20208;-73
2023/11/14 04:21:10;;;;;;;4.00;3.10;;;9.20;99.90;;;;;;5063956;28;20207;-73
2023/11/14 04:23:59;;;;;;;3.27;2.67;;;9.20;99.90;;;;;;5061246;28;20282;-73
2023/11/14 04:26:46;;;;;;;4.77;3.30;;;9.20;99.90;;;;;;5060126;28;20712;-73
2023/11/14 04:29:34;;;;;;;3.73;2.80;;;9.30;99.90;;;;;;5073642;28;20587;-73
2023/11/14 04:32:21;;;;;;;5.10;3.37;;;9.30;99.90;;;;;;5057491;28;20283;-73
2023/11/14 04:35:09;;;;;;;7.50;3.50;;;9.20;99.90;;;;;;5060992;28;20196;-73
2023/11/14 04:37:56;;;;;;;4.23;3.23;;;9.30;99.90;;;;;;5055931;28;20215;-73
2023/11/14 04:40:45;;;;;;;6.27;3.80;;;9.20;99.90;;;;;;5065253;28;20226;-73
2023/11/14 04:43:32;;;;;;;7.30;4.07;;;9.20;99.90;;;;;;5053038;28;20200;-73
2023/11/14 04:46:20;;;;;;;5.77;3.13;;;9.20;99.90;;;;;;5073173;28;20436;-73
2023/11/14 04:49:07;;;;;;;4.80;2.80;;;9.20;99.90;;;;;;5067617;28;20213;-73
2023/11/14 04:51:55;;;;;;;6.97;3.10;;;9.20;99.90;;;;;;5059584;28;20597;-73
2023/11/14 04:54:44;;;;;;;6.60;3.80;;;9.20;99.90;;;;;;5070912;28;21023;-73
2023/11/14 04:57:32;;;;;;;8.03;4.30;;;9.10;99.90;;;;;;5062626;28;20208;-73
2023/11/14 05:00:20;;;;;;;6.80;4.00;;;9.10;99.90;;;;;;5070922;28;20207;-73
2023/11/14 05:03:07;;;;;;;6.47;3.80;;;9.10;99.90;;;;;;5071844;28;20200;-73
2023/11/14 05:05:54;;;;;;;7.17;3.33;;;9.10;99.90;;;;;;5072678;28;20204;-73
2023/11/14 05:08:41;;;;;;;5.63;3.37;;;9.10;99.90;;;;;;5064327;28;20290;-73
2023/11/14 05:11:29;;;;;;;4.57;2.33;;;9.00;99.90;;;;;;5058562;28;20225;-72
2023/11/14 05:14:17;;;;;;;5.00;3.17;;;9.00;99.90;;;;;;5067860;28;20589;-73
2023/11/14 05:17:05;;;;;;;6.60;3.63;;;9.10;99.90;;;;;;5056021;28;20208;-73
2023/11/14 05:19:54;;;;;;;5.60;4.07;;;9.10;99.90;;;;;;5069002;28;20696;-73
2023/11/14 05:22:42;;;;;;;6.30;3.70;;;9.10;99.90;;;;;;5069899;28;20212;-73
2023/11/14 05:25:29;;;;;;;6.50;3.90;;;9.10;99.90;;;;;;5068644;28;20211;-73
2023/11/14 05:28:17;;;;;;;6.10;3.60;;;9.10;99.90;;;;;;5063449;28;20303;-73
2023/11/14 05:31:07;;;;;;;7.43;3.73;;;9.10;99.90;;;;;;5057990;28;20201;-73
2023/11/14 05:33:54;;;;;;;3.50;2.07;;;9.10;99.90;;;;;;5072813;28;20581;-72
2023/11/14 05:36:41;;;;;;;7.23;3.80;;;9.10;99.90;;;;;;5065810;28;20719;-73
2023/11/14 05:39:28;;;;;;;7.17;3.70;;;9.10;99.90;;;;;;5059389;28;20219;-73
2023/11/14 05:42:16;;;;;;;7.43;3.63;;;9.10;99.90;;;;;;5059033;28;20207;-73
2023/11/14 05:45:03;;;;;;;7.10;3.73;;;9.10;99.90;;;;;;5070424;28;20199;-73
2023/11/14 05:47:52;;;;;;;6.20;2.73;;;9.10;99.90;;;;;;5071227;28;20205;-73
2023/11/14 05:50:39;;;;;;;5.93;2.83;;;9.10;99.90;;;;;;5056545;28;20209;-73
2023/11/14 05:53:26;;;;;;;3.63;1.77;;;9.10;99.90;;;;;;5069271;28;20702;-73
2023/11/14 05:56:14;;;;;;;6.17;3.80;;;9.10;99.90;;;;;;5062925;28;20204;-74
2023/11/14 05:59:01;;;;;;;8.27;3.40;;;9.10;99.90;;;;;;5063661;28;20265;-74
2023/11/14 06:01:49;;;;;;;7.30;4.30;;;9.10;99.90;;;;;;5067332;28;20223;-74
2023/11/14 06:04:37;;;;;;;6.87;4.40;;;9.00;99.90;;;;;;5064731;28;20204;-73
2023/11/14 06:07:25;;;;;;;7.90;4.10;;;9.00;99.90;;;;;;5076040;28;20226;-73
2023/11/14 06:10:12;;;;;;;7.87;4.60;;;9.10;99.90;;;;;;5065234;28;20231;-73
2023/11/14 06:12:59;;;;;;;4.70;3.13;;;9.10;99.90;;;;;;5062340;28;20219;-74
2023/11/14 06:15:46;;;;;;;10.37;4.50;;;9.10;99.90;;;;;;5065975;28;20666;-74
2023/11/14 06:18:33;;;;;;;5.30;3.67;;;9.00;99.90;;;;;;5063795;28;20684;-74
2023/11/14 06:21:22;;;;;;;5.63;3.37;;;9.00;99.90;;;;;;5063141;28;20227;-74
2023/11/14 06:24:09;;;;;;;7.67;4.43;;;9.00;99.90;;;;;;5072528;28;20196;-73
2023/11/14 06:26:57;;;;;;;7.37;4.10;;;9.00;99.90;;;;;;5065994;28;20254;-73
2023/11/14 06:29:44;;;;;;;7.47;3.83;;;9.00;99.90;;;;;;5068163;28;20208;-73
2023/11/14 06:32:31;;;;;;;6.63;4.17;;;9.00;99.90;;;;;;5056835;28;20222;-73
2023/11/14 06:35:18;;;;;;;7.10;3.90;;;9.00;99.90;;;;;;5063123;28;20269;-73
2023/11/14 06:38:07;;;;;;;5.80;3.87;;;8.90;99.90;;;;;;5061147;28;20196;-73
2023/11/14 06:40:55;;;;;;;10.30;4.47;;;9.00;99.90;;;;;;5060197;28;20287;-73
2023/11/14 06:43:42;;;;;;;7.93;4.27;;;8.90;99.90;;;;;;5059160;28;20199;-73
2023/11/14 06:46:30;;;;;;;7.67;4.43;;;8.90;99.90;;;;;;5067065;28;20204;-73
2023/11/14 06:49:17;;;;;;;5.40;2.73;;;9.00;99.90;;;;;;5060444;28;20216;-72
2023/11/14 06:52:04;;;;;;;4.73;2.27;;;9.00;99.90;;;;;;5064924;28;20678;-73
2023/11/14 06:54:53;;;;;;;6.07;3.97;;;9.00;99.90;;;;;;5069308;28;20699;-73
2023/11/14 06:57:40;;;;;;;11.20;4.50;;;9.00;99.90;;;;;;5066369;28;20208;-73
2023/11/14 07:00:27;;;;;;;4.50;2.60;;;9.00;99.90;;;;;;5064971;28;20373;-73
2023/11/14 07:03:15;;;;;;;9.50;3.80;;;9.00;99.90;;;;;;5060727;28;20566;-73
2023/11/14 07:06:02;;;;;;;6.67;3.47;;;9.10;99.90;;;;;;5066027;28;20200;-74
2023/11/14 07:08:50;;;;;;;3.40;2.03;;;9.10;99.90;;;;;;5068208;28;20230;-73
2023/11/14 07:11:39;;;;;;;6.90;2.83;;;9.20;99.90;;;;;;5063122;28;20227;-73
2023/11/14 07:14:29;;;;;;;5.43;2.40;;;9.20;99.90;;;;;;5064006;28;20259;-74
2023/11/14 07:17:16;;;;;;;4.17;2.53;;;9.30;99.90;;;;;;5066250;28;20675;-73
2023/11/14 07:20:05;;;;;;;4.70;2.60;;;9.30;99.90;;;;;;5058560;28;20577;-74
2023/11/14 07:22:53;;;;;;;4.50;2.50;;;9.40;99.90;;;;;;5059332;28;20208;-74
2023/11/14 07:25:43;;;;;;;5.97;2.60;;;9.40;99.90;;;;;;5066625;28;20208;-74
2023/11/14 07:28:33;;;;;;;9.70;2.80;;;9.50;99.90;;;;;;5060360;28;20216;-74
2023/11/14 07:31:20;;;;;;;6.33;3.07;;;9.60;99.90;;;;;;5069360;28;20689;-73
2023/11/14 07:34:07;;;;;;;5.50;2.43;;;9.50;99.90;;;;;;5066527;28;20216;-73
2023/11/14 07:36:55;;;;;;;7.33;2.50;;;9.60;99.90;;;;;;5065024;28;20315;-73
2023/11/14 07:39:42;;;;;;;6.67;2.47;;;9.50;99.90;;;;;;5061162;28;20212;-73
2023/11/14 07:42:30;;;;;;;3.47;2.10;;;9.50;99.90;;;;;;5060279;28;20301;-74
2023/11/14 07:45:20;;;;;;;6.03;2.63;;;9.40;99.90;;;;;;5063307;28;20196;-73
2023/11/14 07:48:08;;;;;;;4.23;2.57;;;9.40;99.90;;;;;;5062429;28;20207;-74
2023/11/14 07:50:56;;;;;;;4.93;2.50;;;9.40;99.90;;;;;;5059389;28;20223;-73
2023/11/14 07:53:46;;;;;;;4.57;2.50;;;9.40;99.90;;;;;;5059656;28;20197;-74
2023/11/14 07:56:33;;;;;;;4.40;2.60;;;9.30;99.90;;;;;;5060561;28;20207;-73
2023/11/14 07:59:21;;;;;;;9.23;2.40;;;9.30;99.90;;;;;;5067014;28;20293;-73
2023/11/14 08:02:10;;;;;;;7.40;2.17;;;9.50;99.90;;;;;;5053128;28;20195;-73
2023/11/14 08:04:57;;;;;;;7.70;2.60;;;9.50;99.90;;;;;;5053598;28;20287;-73
2023/11/14 08:07:44;;;;;;;6.97;2.90;;;9.40;99.90;;;;;;5067161;28;20200;-73
2023/11/14 08:10:31;;;;;;;5.87;2.60;;;9.40;99.90;;;;;;5067869;28;20228;-74
2023/11/14 08:13:18;;;;;;;5.77;2.60;;;9.40;99.90;;;;;;5063641;28;20655;-74
2023/11/14 08:16:06;;;;;;;6.93;3.00;;;9.50;99.90;;;;;;5057186;28;20651;-73
2023/11/14 08:18:55;;;;;;;11.87;3.20;;;9.50;99.90;;;;;;5059625;28;20197;-74
2023/11/14 08:21:42;;;;;;;9.50;3.17;;;9.50;99.90;;;;;;5071244;28;20693;-73
2023/11/14 08:24:29;;;;;;;10.73;3.30;;;9.50;99.90;;;;;;5054557;28;20189;-73
2023/11/14 08:27:17;;;;;;;9.30;3.63;;;9.60;99.90;;;;;;5063818;28;20202;-74
2023/11/14 08:30:06;;;;;;;3.03;1.30;;;9.70;99.90;;;;;;5055196;28;20200;-73
2023/11/14 08:32:54;;;;;;;8.47;3.00;;;9.70;99.90;;;;;;5056707;28;20279;-73
2023/11/14 08:35:43;;;;;;;7.57;3.00;;;9.60;99.90;;;;;;5063248;28;20224;-73
2023/11/14 08:38:30;;;;;;;7.93;2.97;;;9.70;99.90;;;;;;5066173;28;20207;-73
2023/11/14 08:41:18;;;;;;;1.80;1.13;;;9.80;99.90;;;;;;5062711;28;20196;-73
2023/11/14 08:44:05;;;;;;;7.67;2.73;;;9.90;99.90;;;;;;5054390;28;20204;-73
2023/11/14 08:46:53;;;;;;;3.57;1.17;;;9.90;99.90;;;;;;5064956;28;20585;-73
2023/11/14 08:49:40;;;;;;;5.23;2.10;;;10.00;99.90;;;;;;5059252;28;20620;-73
2023/11/14 08:52:29;;;;;;;5.90;2.60;;;10.00;99.90;;;;;;5054330;28;20213;-73
2023/11/14 08:55:16;;;;;;;9.77;3.30;;;10.10;99.90;;;;;;5061897;28;20216;-73
2023/11/14 08:58:04;;;;;;;8.97;3.77;;;10.20;99.90;;;;;;5063309;28;20199;-73
2023/11/14 09:00:54;;;;;;;13.40;2.70;;;10.60;99.90;;;;;;5061736;28;20204;-73
2023/11/14 09:03:43;;;;;;;6.07;2.90;;;10.80;99.90;;;;;;5065566;28;20291;-73
2023/11/14 09:06:31;;;;;;;6.13;2.20;;;11.00;99.90;;;;;;5051783;28;20205;-73
2023/11/14 09:09:20;;;;;;;10.17;3.00;;;10.90;99.90;;;;;;5064385;28;20243;-73
2023/11/14 09:12:08;;;;;;;11.63;3.43;;;11.20;99.90;;;;;;5061833;28;20574;-73
2023/11/14 09:14:56;;;;;;;10.37;2.93;;;11.10;99.90;;;;;;5055135;28;20226;-74
2023/11/14 09:17:43;;;;;;;6.27;2.70;;;11.30;99.90;;;;;;5056865;28;20576;-73
2023/11/14 09:20:30;;;;;;;7.87;2.40;;;11.30;99.90;;;;;;5052750;28;20794;-73
2023/11/14 09:23:17;;;;;;;10.73;1.93;;;11.80;99.90;;;;;;5070925;28;20663;-73
2023/11/14 09:26:07;;;;;;;4.50;1.23;;;11.40;99.90;;;;;;5071051;28;20197;-72
2023/11/14 09:28:55;;;;;;;5.70;2.17;;;11.60;99.90;;;;;;5068428;28;20199;-73
2023/11/14 09:31:42;;;;;;;3.53;1.40;;;11.50;99.90;;;;;;5061819;28;20265;-74
2023/11/14 09:34:30;;;;;;;7.53;1.70;;;11.70;99.90;;;;;;5070234;28;20229;-73
2023/11/14 09:37:17;;;;;;;9.17;1.73;;;11.80;99.90;;;;;;5068846;28;20444;-73
2023/11/14 09:40:06;;;;;;;10.33;1.97;;;11.90;99.90;;;;;;5066989;28;20208;-73
2023/11/14 09:42:55;;;;;;;4.03;1.83;;;11.90;99.90;;;;;;5070054;28;20204;-72
2023/11/14 09:45:42;;;;;;;7.53;2.07;;;11.70;99.90;;;;;;5064367;28;20228;-73
2023/11/14 09:48:29;;;;;;;6.67;1.90;;;11.30;99.90;;;;;;5051662;28;20706;-73
2023/11/14 09:51:16;;;;;;;8.00;1.80;;;11.30;99.90;;;;;;5066127;28;20193;-73
2023/11/14 09:54:04;;;;;;;6.13;1.53;;;11.00;99.90;;;;;;5061291;28;20203;-72
2023/11/14 09:56:51;;;;;;;9.17;1.80;;;10.90;99.90;;;;;;5067540;28;20212;-73
2023/11/14 09:59:42;;;;;;;6.47;1.90;;;10.90;99.90;;;;;;5059321;28;20205;-73
2023/11/14 10:02:30;;;;;;;4.80;0.93;;;11.00;99.90;;;;;;5058114;28;20595;-71
2023/11/14 10:05:17;;;;;;;5.63;1.70;;;10.90;99.90;;;;;;5066395;28;20193;-72
2023/11/14 10:08:05;;;;;;;9.23;2.30;;;10.70;99.90;;;;;;5060998;28;20220;-73
2023/11/14 10:11:06;;;;;;;5.00;2.20;;;10.80;99.90;;;;;;5060963;28;20225;-71
2023/11/14 10:13:56;;;;;;;16.23;2.43;;;11.00;99.90;;;;;;5064224;28;20200;-73
2023/11/14 10:16:44;;;;;;;2.90;1.37;;;11.00;99.90;;;;;;5063171;28;20671;-73
2023/11/14 10:19:31;;;;;;;5.00;1.20;;;11.10;99.90;;;;;;5062335;28;20201;-72
2023/11/14 10:22:18;;;;;;;8.73;1.90;;;11.30;99.90;;;;;;5066029;28;20201;-73
2023/11/14 10:25:07;;;;;;;3.53;1.07;;;11.40;99.90;;;;;;5068377;28;20199;-71
2023/11/14 10:28:04;;;;;;;0.97;0.40;;;11.50;99.90;;;;;;5070824;28;20368;-71
2023/11/14 10:30:55;;;;;;;9.23;2.10;;;11.50;99.90;;;;;;5063779;28;20293;-73
2023/11/14 10:33:44;;;;;;;6.90;1.43;;;11.30;99.90;;;;;;5067184;28;20284;-73
2023/11/14 10:36:45;;;;;;;6.73;1.40;;;11.30;99.90;;;;;;5055166;28;20235;-72
2023/11/14 10:39:32;;;;;;;9.43;1.97;;;11.00;99.90;;;;;;5060958;28;20207;-72
2023/11/14 10:42:19;;;;;;;7.00;1.73;;;11.10;99.90;;;;;;5055609;28;20241;-72
2023/11/14 10:45:08;;;;;;;10.83;1.70;;;11.60;99.90;;;;;;5059706;28;20273;-72
2023/11/14 10:47:56;;;;;;;12.30;1.70;;;12.30;99.90;;;;;;5045399;28;20246;-73
2023/11/14 10:50:45;;;;;;;7.07;1.43;;;12.60;99.90;;;;;;5070925;28;20287;-72
2023/11/14 10:53:32;;;;;;;7.33;1.80;;;12.00;99.90;;;;;;5070061;28;20202;-73
2023/11/14 10:56:20;;;;;;;5.47;1.37;;;11.70;99.90;;;;;;5056964;28;20234;-73
2023/11/14 10:59:10;;;;;;;2.73;1.13;;;12.20;99.90;;;;;;5069277;28;20608;-72
2023/11/14 11:01:57;;;;;;;8.83;2.00;;;12.60;99.90;;;;;;5058786;28;20207;-73
2023/11/14 11:04:44;;;;;;;9.13;1.80;;;13.00;99.90;;;;;;5064181;28;20610;-71
2023/11/14 11:07:33;;;;;;;7.97;1.27;;;12.70;99.90;;;;;;5064468;28;20207;-72
2023/11/14 11:10:20;;;;;;;8.90;1.60;;;13.00;99.90;;;;;;5069193;28;20552;-72
2023/11/14 11:13:12;;;;;;;7.20;1.70;;;13.10;99.90;;;;;;5057553;28;20682;-72
2023/11/14 11:15:59;;;;;;;4.80;1.17;;;13.00;99.90;;;;;;5051888;28;20238;-71
2023/11/14 11:18:46;;;;;;;7.57;1.10;;;12.20;99.90;;;;;;5051343;28;20203;-71
2023/11/14 11:21:34;;;;;;;10.40;1.63;;;11.80;99.90;;;;;;5061821;28;20600;-71
2023/11/14 11:24:25;;;;;;;6.53;1.10;;;11.60;99.90;;;;;;5068778;28;20206;-71
2023/11/14 11:27:15;;;;;;;5.97;1.30;;;11.40;99.90;;;;;;5064311;28;20209;-71
2023/11/14 11:30:07;;;;;;;8.20;1.40;;;11.10;99.90;;;;;;5063767;28;20590;-71
2023/11/14 11:32:58;;;;;;;6.63;1.53;;;11.10;99.90;;;;;;5059110;28;20688;-71
2023/11/14 11:35:45;;;;;;;9.20;2.03;;;11.00;99.90;;;;;;5056240;28;20728;-71
2023/11/14 11:38:33;;;;;;;8.00;1.67;;;10.90;99.90;;;;;;5065106;28;20210;-73
2023/11/14 11:41:22;;;;;;;10.13;1.83;;;10.80;99.90;;;;;;5064360;28;20205;-71
2023/11/14 11:44:10;;;;;;;6.47;1.53;;;10.80;99.90;;;;;;5058075;28;20209;-72
2023/11/14 11:46:57;;;;;;;9.27;1.70;;;10.70;99.90;;;;;;5051812;28;20201;-72
2023/11/14 11:49:44;;;;;;;4.87;1.53;;;10.80;99.90;;;;;;5050542;28;20216;-72
2023/11/14 11:52:32;;;;;;;7.47;2.10;;;10.90;99.90;;;;;;5049844;28;20206;-72
2023/11/14 11:55:22;;;;;;;13.20;1.43;;;10.90;99.90;;;;;;5063325;28;20254;-72
2023/11/14 11:58:10;;;;;;;8.33;1.33;;;11.00;99.90;;;;;;5067186;28;20212;-72
2023/11/14 12:01:08;;;;;;;3.90;1.40;;;11.00;99.90;;;;;;5068001;28;20722;-72
2023/11/14 12:03:58;;;;;;;8.20;1.30;;;11.20;99.90;;;;;;5058211;28;20259;-73
2023/11/14 12:06:45;;;;;;;6.10;1.40;;;11.10;99.90;;;;;;5055902;28;20284;-72
2023/11/14 12:09:32;;;;;;;7.97;2.03;;;11.30;99.90;;;;;;5068850;28;20256;-72
2023/11/14 12:12:19;;;;;;;3.60;1.20;;;11.60;99.90;;;;;;5067309;28;20232;-71
2023/11/14 12:15:12;;;;;;;6.57;1.43;;;12.30;99.90;;;;;;5067672;28;20207;-71
2023/11/14 12:17:59;;;;;;;5.03;1.17;;;12.90;99.90;;;;;;5068409;28;20219;-72
2023/11/14 12:20:48;;;;;;;7.70;1.07;;;12.80;99.90;;;;;;5067177;28;20627;-72
2023/11/14 12:23:35;;;;;;;5.83;1.20;;;12.10;99.90;;;;;;5065803;28;20222;-71
2023/11/14 12:26:23;;;;;;;4.27;1.10;;;11.90;99.90;;;;;;5061187;28;20303;-73
2023/11/14 12:29:11;;;;;;;9.50;1.80;;;11.80;99.90;;;;;;5066510;28;20198;-72
2023/11/14 12:31:59;;;;;;;5.63;1.47;;;11.50;99.90;;;;;;5052444;28;20208;-73
2023/11/14 12:34:46;;;;;;;5.40;1.30;;;11.40;99.90;;;;;;5067767;28;20230;-72
2023/11/14 12:37:34;;;;;;;1.50;0.50;;;11.30;99.90;;;;;;5049325;28;20221;-72
2023/11/14 12:40:21;;;;;;;10.27;1.83;;;11.30;99.90;;;;;;5068632;28;21417;-72
2023/11/14 12:43:09;;;;;;;6.73;1.37;;;11.30;99.90;;;;;;5058588;28;20211;-71
2023/11/14 12:45:56;;;;;;;8.13;1.63;;;11.10;99.90;;;;;;5048615;28;20211;-72
2023/11/14 12:49:10;;;;;;;7.17;1.67;;;11.00;99.90;;;;;;5049409;28;20227;-73
2023/11/14 12:51:57;;;;;;;11.53;1.90;;;10.80;99.90;;;;;;5056998;28;20201;-72
2023/11/14 12:54:44;;;;;;;8.40;1.67;;;10.90;99.90;;;;;;5068582;28;20568;-72
2023/11/14 12:57:32;;;;;;;4.40;1.40;;;10.80;99.90;;;;;;5059231;28;20205;-73
2023/11/14 13:00:19;;;;;;;6.83;1.60;;;10.70;99.90;;;;;;5053016;28;20212;-72
2023/11/14 13:03:06;;;;;;;9.53;1.80;;;10.70;99.90;;;;;;5071032;28;20197;-73
2023/11/14 13:05:55;;;;;;;9.77;1.90;;;10.60;99.90;;;;;;5048254;28;20278;-72
2023/11/14 13:08:42;;;;;;;11.67;2.10;;;10.60;99.90;;;;;;5052375;28;20295;-72
2023/11/14 13:11:29;;;;;;;12.23;2.00;;;10.60;99.90;;;;;;5061141;28;20200;-72
2023/11/14 13:14:17;;;;;;;4.60;1.43;;;10.70;99.90;;;;;;5072493;28;20201;-71
2023/11/14 13:17:04;;;;;;;8.43;1.90;;;10.70;99.90;;;;;;5071424;28;20228;-73
2023/11/14 13:19:51;;;;;;;8.17;1.57;;;10.60;99.90;;;;;;5061381;28;20728;-72
2023/11/14 13:22:41;;;;;;;7.23;1.60;;;10.50;99.90;;;;;;5052740;28;20205;-72
2023/11/14 13:25:28;;;;;;;8.23;1.60;;;10.40;99.90;;;;;;5057539;28;20279;-72
2023/11/14 13:28:15;;;;;;;4.37;1.33;;;10.40;99.90;;;;;;5059740;28;20212;-72
2023/11/14 13:31:03;;;;;;;10.73;2.07;;;10.40;99.90;;;;;;5051575;28;20198;-72
2023/11/14 13:33:51;;;;;;;5.00;1.47;;;10.40;99.90;;;;;;5055890;28;20200;-73
2023/11/14 13:36:39;;;;;;;8.07;2.03;;;10.40;99.90;;;;;;5071378;28;20228;-73
2023/11/14 13:39:27;;;;;;;3.93;1.47;;;10.30;99.90;;;;;;5060988;28;20209;-72
2023/11/14 13:42:15;;;;;;;10.40;2.07;;;10.30;99.90;;;;;;5064549;28;20209;-72
2023/11/14 13:45:02;;;;;;;12.70;1.90;;;10.30;99.90;;;;;;5066083;28;20206;-72
2023/11/14 13:47:50;;;;;;;8.07;2.10;;;10.30;99.90;;;;;;5064843;28;20205;-72
2023/11/14 13:50:37;;;;;;;6.17;1.43;;;10.30;99.90;;;;;;5051692;28;20722;-71
2023/11/14 13:53:26;;;;;;;6.70;1.97;;;10.30;99.90;;;;;;5052739;28;20335;-72
2023/11/14 13:56:15;;;;;;;18.60;2.90;;;10.30;99.90;;;;;;5064887;28;20232;-73
2023/11/14 13:59:02;;;;;;;9.17;1.60;;;10.20;99.90;;;;;;5070295;28;20203;-71
2023/11/14 14:01:49;;;;;;;15.63;2.90;;;10.30;99.90;;;;;;5051656;28;20212;-72
2023/11/14 14:04:36;;;;;;;6.77;1.40;;;10.30;99.90;;;;;;5058224;28;20200;-71
2023/11/14 14:07:24;;;;;;;5.80;1.33;;;10.20;99.90;;;;;;5070145;28;20294;-72
2023/11/14 14:10:13;;;;;;;15.03;3.00;;;10.20;99.90;;;;;;5070001;28;20247;-72
2023/11/14 14:13:02;;;;;;;12.60;2.87;;;10.20;99.90;;;;;;5071329;28;20196;-73
2023/11/14 14:15:49;;;;;;;9.87;2.60;;;10.20;99.90;;;;;;5069462;28;20437;-72
2023/11/14 14:18:37;;;;;;;5.90;1.87;;;10.20;99.90;;;;;;5069284;28;20679;-72
2023/11/14 14:21:26;;;;;;;10.30;2.20;;;10.20;99.90;;;;;;5063029;28;20209;-72
2023/11/14 14:24:13;;;;;;;5.23;1.77;;;10.20;99.90;;;;;;5057957;28;20662;-72
2023/11/14 14:27:00;;;;;;;11.90;3.43;;;10.20;99.90;;;;;;5070663;28;20200;-72
2023/11/14 14:29:49;;;;;;;9.77;2.80;;;10.10;99.90;;;;;;5069897;28;20201;-73
2023/11/14 14:32:37;;;;;;;21.23;2.13;;;10.00;99.90;;;;;;5057807;28;20210;-72
2023/11/14 14:35:24;;;;;;;11.43;2.87;;;10.00;99.90;;;;;;5069097;28;20223;-72
2023/11/14 14:38:12;;;;;;;6.73;1.70;;;10.00;99.90;;;;;;5069638;28;20266;-72